Cosco Taicang — VREV9 — position and weather

sailwx.info

Track history (hours):
 
Tides and Currents Weather Stations Pressure Air Temp Water Temp Dewpoint Dewpoint Depression Visibility Wind Speed Wind Dir Waves Ship Positions

Cosco Taicang

Last reported at 2017-Oct-13 19:00 UTC. Time now 2017-Oct-16 22:34 UTC.
Position N 39°12' E 135°18'.

Length 349 m; draft 12.3 m.

Type: Ship (hazmat cat A). MMSI: 477189297.

Wind from 090 at 10 knots

Barometer 1016.0 mb
Air temperature 15.0 ° C
Visibility: greater than 5.4 NM
Water temperature 20.0 ° C

Date/timePositionNaut miles runAvg speedWind from/ knotsBaromVisibWave heightAir tempDewpointWater temp
2017-Oct-13 19:00N 39°12' E 135°18'34117.0 090 / 101016.0 5.4 15.0 20.0
2017-Oct-12 23:00N 41°42' E 142°00'3323830.8 320 / 14 5.4 15.0 18.0
2017-Oct-12 19:00N 41°54' W 143°42'236751.5 270 / 201018.0 5.4 13.0 16.0
2017-Oct-10 21:00N 45°06' E 162°06'39518.8 320 / 331000.0 5.4 12.0 16.0
2017-Oct-10 00:00N 46°36' E 171°18'103221.1 180 / 241013.0 5.4 14.0 13.0
2017-Oct-07 23:00N 56°18' W 165°54'54021.6 320 / 261014.9 13.0 12.0
2017-Oct-06 22:00N 50°48' W 153°54'89718.2 320 / 241022.0 5.4 12.0 13.0
2017-Oct-04 20:50N 48°31' W 131°05'1719.5
2017-Oct-04 19:58N 48°31' W 130°39'4319.2
2017-Oct-04 17:42N 48°31' W 129°33'419.3
2017-Oct-04 17:28N 48°31' W 129°27'2819.2
2017-Oct-04 15:59N 48°31' W 128°44'918.8
2017-Oct-04 15:30N 48°31' W 128°30'1018.2
2017-Oct-04 14:59N 48°31' W 128°16'1318.1
2017-Oct-04 14:14N 48°31' W 127°56'417.9
2017-Oct-04 14:00N 48°31' W 127°49'918.2
2017-Oct-04 13:30N 48°31' W 127°36'918.0
2017-Oct-04 13:00N 48°31' W 127°22'918.2
2017-Oct-04 12:30N 48°31' W 127°08'918.6
2017-Oct-04 12:00N 48°31' W 126°54'918.3
2017-Oct-04 11:30N 48°31' W 126°40'918.3
2017-Oct-04 11:00N 48°31' W 126°27'917.7
2017-Oct-04 10:30N 48°31' W 126°13'917.7
2017-Oct-04 10:00N 48°31' W 125°60'918.1
2017-Oct-04 09:30N 48°31' W 125°46'918.2
2017-Oct-04 09:00N 48°32' W 125°32'918.6
2017-Oct-04 08:30N 48°32' W 125°18'918.2
2017-Oct-04 08:00N 48°32' W 125°05'917.5
2017-Oct-04 07:30N 48°31' W 124°52'918.2
2017-Oct-04 07:00N 48°29' W 124°38'918.7
2017-Oct-04 06:30N 48°25' W 124°25'1018.9
2017-Oct-04 06:00N 48°21' W 124°12'918.7
2017-Oct-04 05:30N 48°18' W 123°59'1019.5
2017-Oct-04 05:00N 48°16' W 123°45'1020.3
2017-Oct-04 04:30N 48°14' W 123°30'815.0
2017-Oct-04 04:00N 48°09' W 123°23'713.8
2017-Oct-04 03:30N 48°11' W 123°13'1019.8
2017-Oct-04 03:00N 48°12' W 122°58'1020.5
2017-Oct-04 02:30N 48°10' W 122°43'1220.6
2017-Oct-04 01:56N 47°59' W 122°35'818.8
2017-Oct-04 01:30N 47°53' W 122°28'918.8
2017-Oct-04 01:00N 47°44' W 122°26'714.0
2017-Oct-04 00:30N 47°37' W 122°23'3 5.0
2017-Oct-04 00:00N 47°35' W 122°21'0 0.3
2017-Oct-03 23:30N 47°35' W 122°21'0 0.0
2017-Oct-03 23:00N 47°35' W 122°21'0 0.0
2017-Oct-03 22:30N 47°35' W 122°21'0 0.0
2017-Oct-03 21:59N 47°35' W 122°21'0 0.0
2017-Oct-03 21:30N 47°35' W 122°21'0 0.0
2017-Oct-03 21:00N 47°35' W 122°21'0 0.0
2017-Oct-03 20:30N 47°35' W 122°21'0 0.0
2017-Oct-03 20:00N 47°35' W 122°21'0 0.0
2017-Oct-03 19:30N 47°35' W 122°21'0 0.0
2017-Oct-03 19:00N 47°35' W 122°21'  
Track history (hours):
 
Tides and Currents Weather Stations Pressure Air Temp Water Temp Dewpoint Dewpoint Depression Visibility Wind Speed Wind Dir Waves Ship Positions

Cosco Taicang

Last reported at 2017-Oct-13 19:00 UTC. Time now 2017-Oct-16 22:34 UTC.
Position N 39°12' E 135°18'.

Length 349 m; draft 12.3 m.

Type: Ship (hazmat cat A). MMSI: 477189297.

Wind from 090 at 10 knots

Barometer 1016.0 mb
Air temperature 15.0 ° C
Visibility: greater than 5.4 NM
Water temperature 20.0 ° C

Date/timePositionNaut miles runAvg speedWind from/ knotsBaromVisibWave heightAir tempDewpointWater temp
2017-Oct-13 19:00N 39°12' E 135°18'34117.0 090 / 101016.0 5.4 15.0 20.0
2017-Oct-12 23:00N 41°42' E 142°00'3323830.8 320 / 14 5.4 15.0 18.0
2017-Oct-12 19:00N 41°54' W 143°42'236751.5 270 / 201018.0 5.4 13.0 16.0
2017-Oct-10 21:00N 45°06' E 162°06'39518.8 320 / 331000.0 5.4 12.0 16.0
2017-Oct-10 00:00N 46°36' E 171°18'103221.1 180 / 241013.0 5.4 14.0 13.0
2017-Oct-07 23:00N 56°18' W 165°54'54021.6 320 / 261014.9 13.0 12.0
2017-Oct-06 22:00N 50°48' W 153°54'89718.2 320 / 241022.0 5.4 12.0 13.0
2017-Oct-04 20:50N 48°31' W 131°05'1719.5
2017-Oct-04 19:58N 48°31' W 130°39'4319.2
2017-Oct-04 17:42N 48°31' W 129°33'419.3
2017-Oct-04 17:28N 48°31' W 129°27'2819.2
2017-Oct-04 15:59N 48°31' W 128°44'918.8
2017-Oct-04 15:30N 48°31' W 128°30'1018.2
2017-Oct-04 14:59N 48°31' W 128°16'1318.1
2017-Oct-04 14:14N 48°31' W 127°56'417.9
2017-Oct-04 14:00N 48°31' W 127°49'918.2
2017-Oct-04 13:30N 48°31' W 127°36'918.0
2017-Oct-04 13:00N 48°31' W 127°22'918.2
2017-Oct-04 12:30N 48°31' W 127°08'918.6
2017-Oct-04 12:00N 48°31' W 126°54'918.3
2017-Oct-04 11:30N 48°31' W 126°40'918.3
2017-Oct-04 11:00N 48°31' W 126°27'917.7
2017-Oct-04 10:30N 48°31' W 126°13'917.7
2017-Oct-04 10:00N 48°31' W 125°60'918.1
2017-Oct-04 09:30N 48°31' W 125°46'918.2
2017-Oct-04 09:00N 48°32' W 125°32'918.6
2017-Oct-04 08:30N 48°32' W 125°18'918.2
2017-Oct-04 08:00N 48°32' W 125°05'917.5
2017-Oct-04 07:30N 48°31' W 124°52'918.2
2017-Oct-04 07:00N 48°29' W 124°38'918.7
2017-Oct-04 06:30N 48°25' W 124°25'1018.9
2017-Oct-04 06:00N 48°21' W 124°12'918.7
2017-Oct-04 05:30N 48°18' W 123°59'1019.5
2017-Oct-04 05:00N 48°16' W 123°45'1020.3
2017-Oct-04 04:30N 48°14' W 123°30'815.0
2017-Oct-04 04:00N 48°09' W 123°23'713.8
2017-Oct-04 03:30N 48°11' W 123°13'1019.8
2017-Oct-04 03:00N 48°12' W 122°58'1020.5
2017-Oct-04 02:30N 48°10' W 122°43'1220.6
2017-Oct-04 01:56N 47°59' W 122°35'818.8
2017-Oct-04 01:30N 47°53' W 122°28'918.8
2017-Oct-04 01:00N 47°44' W 122°26'714.0
2017-Oct-04 00:30N 47°37' W 122°23'3 5.0
2017-Oct-04 00:00N 47°35' W 122°21'0 0.3
2017-Oct-03 23:30N 47°35' W 122°21'0 0.0
2017-Oct-03 23:00N 47°35' W 122°21'0 0.0
2017-Oct-03 22:30N 47°35' W 122°21'0 0.0
2017-Oct-03 21:59N 47°35' W 122°21'0 0.0
2017-Oct-03 21:30N 47°35' W 122°21'0 0.0
2017-Oct-03 21:00N 47°35' W 122°21'0 0.0
2017-Oct-03 20:30N 47°35' W 122°21'0 0.0
2017-Oct-03 20:00N 47°35' W 122°21'0 0.0
2017-Oct-03 19:30N 47°35' W 122°21'0 0.0
2017-Oct-03 19:00N 47°35' W 122°21'  

Dump ship's entire track history